sensor_id;sensor_type;location;lat;lon;timestamp;P1;durP1;ratioP1;P2;durP2;ratioP2
77984;SDS011;67177;47.240;-1.546;2023-02-28T00:01:21;6.38;;;2.40;;
77984;SDS011;67177;47.240;-1.546;2023-02-28T00:03:47;6.03;;;2.57;;
77984;SDS011;67177;47.240;-1.546;2023-02-28T00:06:13;6.45;;;2.63;;
77984;SDS011;67177;47.240;-1.546;2023-02-28T00:08:40;6.95;;;2.90;;
77984;SDS011;67177;47.240;-1.546;2023-02-28T00:11:06;6.72;;;3.13;;
77984;SDS011;67177;47.240;-1.546;2023-02-28T00:13:36;8.10;;;3.15;;
77984;SDS011;67177;47.240;-1.546;2023-02-28T00:16:08;8.45;;;3.55;;
77984;SDS011;67177;47.240;-1.546;2023-02-28T00:18:35;8.25;;;3.35;;
77984;SDS011;67177;47.240;-1.546;2023-02-28T00:21:02;7.13;;;3.20;;
77984;SDS011;67177;47.240;-1.546;2023-02-28T00:23:28;6.78;;;3.03;;
77984;SDS011;67177;47.240;-1.546;2023-02-28T00:25:54;7.50;;;3.13;;
77984;SDS011;67177;47.240;-1.546;2023-02-28T00:28:20;6.57;;;2.70;;
77984;SDS011;67177;47.240;-1.546;2023-02-28T00:30:46;6.43;;;2.63;;
77984;SDS011;67177;47.240;-1.546;2023-02-28T00:33:12;7.72;;;2.83;;
77984;SDS011;67177;47.240;-1.546;2023-02-28T00:35:37;6.63;;;2.50;;
77984;SDS011;67177;47.240;-1.546;2023-02-28T00:38:03;7.53;;;3.03;;
77984;SDS011;67177;47.240;-1.546;2023-02-28T00:40:29;6.87;;;2.80;;
77984;SDS011;67177;47.240;-1.546;2023-02-28T00:42:54;6.13;;;2.33;;
77984;SDS011;67177;47.240;-1.546;2023-02-28T00:45:20;5.63;;;2.35;;
77984;SDS011;67177;47.240;-1.546;2023-02-28T00:47:46;5.40;;;1.90;;
77984;SDS011;67177;47.240;-1.546;2023-02-28T00:50:14;6.03;;;2.55;;
77984;SDS011;67177;47.240;-1.546;2023-02-28T00:52:45;7.18;;;2.75;;
77984;SDS011;67177;47.240;-1.546;2023-02-28T00:55:10;6.47;;;2.60;;
77984;SDS011;67177;47.240;-1.546;2023-02-28T00:57:36;7.30;;;2.60;;
77984;SDS011;67177;47.240;-1.546;2023-02-28T01:00:02;5.90;;;2.40;;
77984;SDS011;67177;47.240;-1.546;2023-02-28T01:02:29;5.68;;;2.17;;
77984;SDS011;67177;47.240;-1.546;2023-02-28T01:04:55;5.95;;;2.47;;
77984;SDS011;67177;47.240;-1.546;2023-02-28T01:07:22;6.37;;;2.40;;
77984;SDS011;67177;47.240;-1.546;2023-02-28T01:09:48;5.63;;;2.28;;
77984;SDS011;67177;47.240;-1.546;2023-02-28T01:12:14;5.75;;;2.28;;
77984;SDS011;67177;47.240;-1.546;2023-02-28T01:14:40;5.88;;;2.20;;
77984;SDS011;67177;47.240;-1.546;2023-02-28T01:17:06;5.83;;;2.17;;
77984;SDS011;67177;47.240;-1.546;2023-02-28T01:19:31;5.20;;;2.00;;
77984;SDS011;67177;47.240;-1.546;2023-02-28T01:22:00;6.55;;;2.40;;
77984;SDS011;67177;47.240;-1.546;2023-02-28T01:24:27;5.70;;;2.10;;
77984;SDS011;67177;47.240;-1.546;2023-02-28T01:26:53;5.53;;;2.15;;
77984;SDS011;67177;47.240;-1.546;2023-02-28T01:29:19;5.63;;;2.40;;
77984;SDS011;67177;47.240;-1.546;2023-02-28T01:31:44;5.40;;;2.08;;
77984;SDS011;67177;47.240;-1.546;2023-02-28T01:34:10;5.18;;;1.83;;
77984;SDS011;67177;47.240;-1.546;2023-02-28T01:36:35;4.93;;;1.80;;
77984;SDS011;67177;47.240;-1.546;2023-02-28T01:39:02;4.55;;;1.50;;
77984;SDS011;67177;47.240;-1.546;2023-02-28T01:41:29;5.07;;;1.90;;
77984;SDS011;67177;47.240;-1.546;2023-02-28T01:44:02;4.63;;;1.73;;
77984;SDS011;67177;47.240;-1.546;2023-02-28T01:46:52;6.20;;;2.40;;
77984;SDS011;67177;47.240;-1.546;2023-02-28T01:49:17;5.83;;;2.40;;
77984;SDS011;67177;47.240;-1.546;2023-02-28T01:51:54;6.97;;;2.83;;
77984;SDS011;67177;47.240;-1.546;2023-02-28T01:54:29;5.65;;;2.33;;
77984;SDS011;67177;47.240;-1.546;2023-02-28T01:56:58;5.70;;;2.03;;
77984;SDS011;67177;47.240;-1.546;2023-02-28T01:59:27;6.00;;;1.90;;
77984;SDS011;67177;47.240;-1.546;2023-02-28T02:01:58;6.40;;;2.30;;
77984;SDS011;67177;47.240;-1.546;2023-02-28T02:04:26;5.85;;;2.10;;
77984;SDS011;67177;47.240;-1.546;2023-02-28T02:06:57;6.20;;;2.00;;
77984;SDS011;67177;47.240;-1.546;2023-02-28T02:09:24;4.95;;;1.70;;
77984;SDS011;67177;47.240;-1.546;2023-02-28T02:11:49;5.88;;;2.42;;
77984;SDS011;67177;47.240;-1.546;2023-02-28T02:17:08;5.35;;;2.05;;
77984;SDS011;67177;47.240;-1.546;2023-02-28T02:25:50;5.88;;;2.30;;
77984;SDS011;67177;47.240;-1.546;2023-02-28T02:34:40;5.88;;;2.40;;
77984;SDS011;67177;47.240;-1.546;2023-02-28T02:40:12;6.50;;;2.40;;
77984;SDS011;67177;47.240;-1.546;2023-02-28T02:42:50;6.05;;;2.25;;
77984;SDS011;67177;47.240;-1.546;2023-02-28T02:48:11;5.63;;;2.33;;
77984;SDS011;67177;47.240;-1.546;2023-02-28T02:50:44;6.60;;;2.50;;
77984;SDS011;67177;47.240;-1.546;2023-02-28T02:53:14;6.20;;;2.50;;
77984;SDS011;67177;47.240;-1.546;2023-02-28T02:55:45;6.22;;;2.67;;
77984;SDS011;67177;47.240;-1.546;2023-02-28T02:58:19;6.05;;;2.30;;
77984;SDS011;67177;47.240;-1.546;2023-02-28T03:00:50;5.80;;;2.40;;
77984;SDS011;67177;47.240;-1.546;2023-02-28T03:03:20;5.63;;;2.60;;
77984;SDS011;67177;47.240;-1.546;2023-02-28T03:05:54;5.25;;;1.90;;
77984;SDS011;67177;47.240;-1.546;2023-02-28T03:08:21;5.50;;;1.98;;
77984;SDS011;67177;47.240;-1.546;2023-02-28T03:10:51;5.40;;;1.90;;
77984;SDS011;67177;47.240;-1.546;2023-02-28T03:20:59;5.80;;;1.70;;
77984;SDS011;67177;47.240;-1.546;2023-02-28T03:23:35;5.60;;;2.00;;
77984;SDS011;67177;47.240;-1.546;2023-02-28T03:26:19;5.10;;;1.92;;
77984;SDS011;67177;47.240;-1.546;2023-02-28T03:31:37;6.18;;;2.08;;
77984;SDS011;67177;47.240;-1.546;2023-02-28T03:34:12;5.63;;;1.80;;
77984;SDS011;67177;47.240;-1.546;2023-02-28T03:36:53;4.88;;;1.83;;
77984;SDS011;67177;47.240;-1.546;2023-02-28T03:39:26;4.60;;;1.70;;
77984;SDS011;67177;47.240;-1.546;2023-02-28T03:42:01;5.13;;;2.00;;
77984;SDS011;67177;47.240;-1.546;2023-02-28T03:47:33;5.72;;;2.08;;
77984;SDS011;67177;47.240;-1.546;2023-02-28T03:50:27;5.20;;;1.90;;
77984;SDS011;67177;47.240;-1.546;2023-02-28T03:52:58;4.67;;;1.90;;
77984;SDS011;67177;47.240;-1.546;2023-02-28T03:55:30;5.13;;;1.67;;
77984;SDS011;67177;47.240;-1.546;2023-02-28T04:00:45;5.63;;;2.00;;
77984;SDS011;67177;47.240;-1.546;2023-02-28T04:03:15;6.50;;;2.57;;
77984;SDS011;67177;47.240;-1.546;2023-02-28T04:05:46;6.25;;;2.67;;
77984;SDS011;67177;47.240;-1.546;2023-02-28T04:08:19;6.10;;;2.40;;
77984;SDS011;67177;47.240;-1.546;2023-02-28T04:10:56;5.73;;;2.40;;
77984;SDS011;67177;47.240;-1.546;2023-02-28T04:13:29;6.63;;;2.50;;
77984;SDS011;67177;47.240;-1.546;2023-02-28T04:15:55;6.30;;;2.40;;
77984;SDS011;67177;47.240;-1.546;2023-02-28T04:18:20;5.53;;;2.40;;
77984;SDS011;67177;47.240;-1.546;2023-02-28T04:20:46;5.33;;;1.90;;
77984;SDS011;67177;47.240;-1.546;2023-02-28T04:23:11;7.22;;;2.88;;
77984;SDS011;67177;47.240;-1.546;2023-02-28T04:25:37;6.83;;;2.70;;
77984;SDS011;67177;47.240;-1.546;2023-02-28T04:28:05;7.28;;;3.10;;
77984;SDS011;67177;47.240;-1.546;2023-02-28T04:30:31;6.10;;;2.60;;
77984;SDS011;67177;47.240;-1.546;2023-02-28T04:32:57;6.38;;;2.53;;
77984;SDS011;67177;47.240;-1.546;2023-02-28T04:35:23;6.30;;;2.30;;
77984;SDS011;67177;47.240;-1.546;2023-02-28T04:37:49;5.33;;;2.17;;
77984;SDS011;67177;47.240;-1.546;2023-02-28T04:40:14;6.87;;;2.57;;
77984;SDS011;67177;47.240;-1.546;2023-02-28T04:42:40;6.25;;;2.22;;
77984;SDS011;67177;47.240;-1.546;2023-02-28T04:45:06;6.05;;;2.38;;
77984;SDS011;67177;47.240;-1.546;2023-02-28T04:47:35;5.40;;;2.20;;
77984;SDS011;67177;47.240;-1.546;2023-02-28T04:50:00;5.93;;;2.30;;
77984;SDS011;67177;47.240;-1.546;2023-02-28T04:52:27;6.20;;;2.03;;
77984;SDS011;67177;47.240;-1.546;2023-02-28T04:54:53;5.93;;;2.25;;
77984;SDS011;67177;47.240;-1.546;2023-02-28T04:57:18;6.77;;;2.50;;
77984;SDS011;67177;47.240;-1.546;2023-02-28T04:59:44;7.25;;;3.40;;
77984;SDS011;67177;47.240;-1.546;2023-02-28T05:02:09;7.13;;;3.37;;
77984;SDS011;67177;47.240;-1.546;2023-02-28T05:04:35;7.37;;;3.17;;
77984;SDS011;67177;47.240;-1.546;2023-02-28T05:07:01;6.03;;;2.72;;
77984;SDS011;67177;47.240;-1.546;2023-02-28T05:09:28;7.47;;;3.15;;
77984;SDS011;67177;47.240;-1.546;2023-02-28T05:11:54;6.35;;;2.78;;
77984;SDS011;67177;47.240;-1.546;2023-02-28T05:14:20;6.65;;;2.80;;
77984;SDS011;67177;47.240;-1.546;2023-02-28T05:16:46;6.28;;;2.60;;
77984;SDS011;67177;47.240;-1.546;2023-02-28T05:19:12;5.77;;;2.23;;
77984;SDS011;67177;47.240;-1.546;2023-02-28T05:21:38;5.82;;;2.40;;
77984;SDS011;67177;47.240;-1.546;2023-02-28T05:24:19;5.97;;;2.30;;
77984;SDS011;67177;47.240;-1.546;2023-02-28T05:26:48;5.75;;;2.13;;
77984;SDS011;67177;47.240;-1.546;2023-02-28T05:29:15;5.20;;;2.00;;
77984;SDS011;67177;47.240;-1.546;2023-02-28T05:31:41;6.00;;;2.53;;
77984;SDS011;67177;47.240;-1.546;2023-02-28T05:34:07;6.20;;;2.47;;
77984;SDS011;67177;47.240;-1.546;2023-02-28T05:36:33;6.10;;;2.37;;
77984;SDS011;67177;47.240;-1.546;2023-02-28T05:38:59;5.65;;;2.20;;
77984;SDS011;67177;47.240;-1.546;2023-02-28T05:41:24;5.43;;;1.90;;
77984;SDS011;67177;47.240;-1.546;2023-02-28T05:43:51;5.73;;;2.03;;
77984;SDS011;67177;47.240;-1.546;2023-02-28T05:46:16;5.22;;;1.92;;
77984;SDS011;67177;47.240;-1.546;2023-02-28T05:48:42;5.07;;;1.93;;
77984;SDS011;67177;47.240;-1.546;2023-02-28T05:51:10;5.07;;;1.70;;
77984;SDS011;67177;47.240;-1.546;2023-02-28T05:53:36;6.10;;;2.27;;
77984;SDS011;67177;47.240;-1.546;2023-02-28T05:56:02;6.03;;;2.25;;
77984;SDS011;67177;47.240;-1.546;2023-02-28T05:58:29;5.40;;;1.92;;
77984;SDS011;67177;47.240;-1.546;2023-02-28T06:00:56;6.18;;;2.47;;
77984;SDS011;67177;47.240;-1.546;2023-02-28T06:03:25;5.68;;;2.40;;
77984;SDS011;67177;47.240;-1.546;2023-02-28T06:05:51;5.10;;;1.90;;
77984;SDS011;67177;47.240;-1.546;2023-02-28T06:08:17;5.90;;;1.90;;
77984;SDS011;67177;47.240;-1.546;2023-02-28T06:10:43;5.55;;;2.30;;
77984;SDS011;67177;47.240;-1.546;2023-02-28T06:13:09;5.43;;;2.28;;
77984;SDS011;67177;47.240;-1.546;2023-02-28T06:15:36;5.80;;;2.20;;
77984;SDS011;67177;47.240;-1.546;2023-02-28T06:18:02;6.82;;;2.83;;
77984;SDS011;67177;47.240;-1.546;2023-02-28T06:20:28;7.32;;;3.13;;
77984;SDS011;67177;47.240;-1.546;2023-02-28T06:22:57;7.35;;;3.05;;
77984;SDS011;67177;47.240;-1.546;2023-02-28T06:25:26;7.20;;;3.65;;
77984;SDS011;67177;47.240;-1.546;2023-02-28T06:27:53;7.55;;;3.15;;
77984;SDS011;67177;47.240;-1.546;2023-02-28T06:30:19;6.93;;;3.47;;
77984;SDS011;67177;47.240;-1.546;2023-02-28T06:32:48;7.20;;;3.40;;
77984;SDS011;67177;47.240;-1.546;2023-02-28T06:35:14;8.60;;;3.40;;
77984;SDS011;67177;47.240;-1.546;2023-02-28T06:37:40;8.33;;;3.70;;
77984;SDS011;67177;47.240;-1.546;2023-02-28T06:40:07;8.02;;;3.70;;
77984;SDS011;67177;47.240;-1.546;2023-02-28T06:42:34;7.28;;;3.10;;
77984;SDS011;67177;47.240;-1.546;2023-02-28T06:45:00;8.33;;;3.60;;
77984;SDS011;67177;47.240;-1.546;2023-02-28T06:47:28;7.68;;;3.35;;
77984;SDS011;67177;47.240;-1.546;2023-02-28T06:49:55;6.80;;;2.97;;
77984;SDS011;67177;47.240;-1.546;2023-02-28T06:52:21;8.40;;;3.77;;
77984;SDS011;67177;47.240;-1.546;2023-02-28T06:54:47;7.25;;;3.20;;
77984;SDS011;67177;47.240;-1.546;2023-02-28T06:57:24;6.90;;;3.22;;
77984;SDS011;67177;47.240;-1.546;2023-02-28T06:59:52;8.57;;;3.20;;
77984;SDS011;67177;47.240;-1.546;2023-02-28T07:02:17;7.03;;;2.90;;
77984;SDS011;67177;47.240;-1.546;2023-02-28T07:04:43;7.07;;;3.13;;
77984;SDS011;67177;47.240;-1.546;2023-02-28T07:07:09;6.72;;;3.10;;
77984;SDS011;67177;47.240;-1.546;2023-02-28T07:09:35;6.47;;;2.83;;
77984;SDS011;67177;47.240;-1.546;2023-02-28T07:12:00;6.60;;;2.50;;
77984;SDS011;67177;47.240;-1.546;2023-02-28T07:14:26;7.10;;;2.60;;
77984;SDS011;67177;47.240;-1.546;2023-02-28T07:16:52;5.93;;;2.27;;
77984;SDS011;67177;47.240;-1.546;2023-02-28T07:19:17;6.65;;;2.63;;
77984;SDS011;67177;47.240;-1.546;2023-02-28T07:21:43;6.27;;;2.47;;
77984;SDS011;67177;47.240;-1.546;2023-02-28T07:24:10;6.55;;;2.58;;
77984;SDS011;67177;47.240;-1.546;2023-02-28T07:26:35;5.72;;;2.33;;
77984;SDS011;67177;47.240;-1.546;2023-02-28T07:29:01;6.40;;;2.50;;
77984;SDS011;67177;47.240;-1.546;2023-02-28T07:31:27;5.70;;;2.40;;
77984;SDS011;67177;47.240;-1.546;2023-02-28T07:33:53;6.32;;;2.70;;
77984;SDS011;67177;47.240;-1.546;2023-02-28T07:36:18;6.68;;;2.70;;
77984;SDS011;67177;47.240;-1.546;2023-02-28T07:38:45;5.70;;;2.33;;
77984;SDS011;67177;47.240;-1.546;2023-02-28T07:41:13;6.97;;;2.72;;
77984;SDS011;67177;47.240;-1.546;2023-02-28T07:43:40;6.20;;;2.77;;
77984;SDS011;67177;47.240;-1.546;2023-02-28T07:46:06;6.93;;;2.83;;
77984;SDS011;67177;47.240;-1.546;2023-02-28T07:48:35;6.28;;;2.70;;
77984;SDS011;67177;47.240;-1.546;2023-02-28T07:51:01;6.77;;;3.00;;
77984;SDS011;67177;47.240;-1.546;2023-02-28T07:53:27;6.93;;;2.92;;
77984;SDS011;67177;47.240;-1.546;2023-02-28T07:55:56;7.95;;;3.40;;
77984;SDS011;67177;47.240;-1.546;2023-02-28T07:58:23;7.18;;;3.33;;
77984;SDS011;67177;47.240;-1.546;2023-02-28T08:00:50;8.43;;;4.03;;
77984;SDS011;67177;47.240;-1.546;2023-02-28T08:03:16;8.38;;;3.90;;
77984;SDS011;67177;47.240;-1.546;2023-02-28T08:05:43;7.70;;;3.93;;
77984;SDS011;67177;47.240;-1.546;2023-02-28T08:08:09;9.20;;;4.28;;
77984;SDS011;67177;47.240;-1.546;2023-02-28T08:10:35;11.07;;;5.43;;
77984;SDS011;67177;47.240;-1.546;2023-02-28T08:13:01;9.75;;;5.13;;
77984;SDS011;67177;47.240;-1.546;2023-02-28T08:15:27;9.95;;;4.80;;
77984;SDS011;67177;47.240;-1.546;2023-02-28T08:17:52;8.80;;;4.53;;
77984;SDS011;67177;47.240;-1.546;2023-02-28T08:20:18;9.73;;;4.82;;
77984;SDS011;67177;47.240;-1.546;2023-02-28T08:22:44;9.93;;;5.37;;
77984;SDS011;67177;47.240;-1.546;2023-02-28T08:25:10;10.17;;;5.23;;
77984;SDS011;67177;47.240;-1.546;2023-02-28T08:27:35;13.02;;;7.13;;
77984;SDS011;67177;47.240;-1.546;2023-02-28T08:30:01;14.05;;;6.82;;
77984;SDS011;67177;47.240;-1.546;2023-02-28T08:32:28;13.67;;;7.37;;
77984;SDS011;67177;47.240;-1.546;2023-02-28T08:34:53;13.05;;;6.43;;
77984;SDS011;67177;47.240;-1.546;2023-02-28T08:37:19;12.43;;;6.50;;
77984;SDS011;67177;47.240;-1.546;2023-02-28T08:39:45;13.65;;;7.15;;
77984;SDS011;67177;47.240;-1.546;2023-02-28T08:42:11;13.10;;;6.77;;
77984;SDS011;67177;47.240;-1.546;2023-02-28T08:44:36;12.40;;;6.07;;
77984;SDS011;67177;47.240;-1.546;2023-02-28T08:47:02;12.90;;;6.30;;
77984;SDS011;67177;47.240;-1.546;2023-02-28T08:49:27;11.43;;;6.30;;
77984;SDS011;67177;47.240;-1.546;2023-02-28T08:51:53;11.50;;;6.57;;
77984;SDS011;67177;47.240;-1.546;2023-02-28T08:54:20;11.15;;;5.45;;
77984;SDS011;67177;47.240;-1.546;2023-02-28T08:56:46;13.07;;;6.93;;
77984;SDS011;67177;47.240;-1.546;2023-02-28T08:59:12;12.88;;;6.63;;
77984;SDS011;67177;47.240;-1.546;2023-02-28T09:01:38;16.58;;;7.28;;
77984;SDS011;67177;47.240;-1.546;2023-02-28T09:04:06;11.90;;;6.67;;
77984;SDS011;67177;47.240;-1.546;2023-02-28T09:06:33;11.48;;;6.20;;
77984;SDS011;67177;47.240;-1.546;2023-02-28T09:08:59;13.57;;;6.55;;
77984;SDS011;67177;47.240;-1.546;2023-02-28T09:11:26;13.25;;;6.10;;
77984;SDS011;67177;47.240;-1.546;2023-02-28T09:13:52;11.00;;;6.03;;
77984;SDS011;67177;47.240;-1.546;2023-02-28T09:16:18;10.82;;;5.80;;
77984;SDS011;67177;47.240;-1.546;2023-02-28T09:18:44;13.48;;;6.25;;
77984;SDS011;67177;47.240;-1.546;2023-02-28T09:21:11;11.60;;;6.10;;
77984;SDS011;67177;47.240;-1.546;2023-02-28T09:23:39;11.55;;;6.45;;
77984;SDS011;67177;47.240;-1.546;2023-02-28T09:26:06;11.65;;;5.80;;
77984;SDS011;67177;47.240;-1.546;2023-02-28T09:28:32;11.57;;;6.13;;
77984;SDS011;67177;47.240;-1.546;2023-02-28T09:30:58;10.55;;;5.72;;
77984;SDS011;67177;47.240;-1.546;2023-02-28T09:33:24;10.88;;;5.13;;
77984;SDS011;67177;47.240;-1.546;2023-02-28T09:35:51;10.60;;;5.20;;
77984;SDS011;67177;47.240;-1.546;2023-02-28T09:38:22;10.25;;;5.35;;
77984;SDS011;67177;47.240;-1.546;2023-02-28T09:41:01;9.47;;;5.10;;
77984;SDS011;67177;47.240;-1.546;2023-02-28T09:43:32;9.40;;;5.22;;
77984;SDS011;67177;47.240;-1.546;2023-02-28T09:48:45;10.23;;;5.40;;
77984;SDS011;67177;47.240;-1.546;2023-02-28T09:53:54;8.65;;;4.47;;
77984;SDS011;67177;47.240;-1.546;2023-02-28T09:58:54;8.60;;;4.20;;
77984;SDS011;67177;47.240;-1.546;2023-02-28T10:04:12;8.50;;;4.70;;
77984;SDS011;67177;47.240;-1.546;2023-02-28T10:07:00;7.32;;;4.07;;
77984;SDS011;67177;47.240;-1.546;2023-02-28T10:09:32;7.60;;;4.00;;
77984;SDS011;67177;47.240;-1.546;2023-02-28T10:12:02;8.30;;;4.27;;
77984;SDS011;67177;47.240;-1.546;2023-02-28T10:14:30;7.50;;;3.60;;
77984;SDS011;67177;47.240;-1.546;2023-02-28T10:17:03;7.63;;;3.58;;
77984;SDS011;67177;47.240;-1.546;2023-02-28T10:25:32;6.72;;;3.30;;
77984;SDS011;67177;47.240;-1.546;2023-02-28T10:28:13;7.60;;;3.22;;
77984;SDS011;67177;47.240;-1.546;2023-02-28T10:30:43;6.88;;;3.30;;
77984;SDS011;67177;47.240;-1.546;2023-02-28T10:33:24;6.00;;;2.90;;
77984;SDS011;67177;47.240;-1.546;2023-02-28T10:35:50;6.73;;;3.20;;
77984;SDS011;67177;47.240;-1.546;2023-02-28T10:38:17;6.70;;;3.17;;
77984;SDS011;67177;47.240;-1.546;2023-02-28T10:40:45;7.63;;;2.80;;
77984;SDS011;67177;47.240;-1.546;2023-02-28T10:45:52;5.50;;;2.40;;
77984;SDS011;67177;47.240;-1.546;2023-02-28T10:56:01;5.80;;;2.60;;
77984;SDS011;67177;47.240;-1.546;2023-02-28T10:58:31;6.65;;;2.55;;
77984;SDS011;67177;47.240;-1.546;2023-02-28T11:01:36;6.10;;;2.40;;
77984;SDS011;67177;47.240;-1.546;2023-02-28T11:04:01;6.63;;;2.40;;
77984;SDS011;67177;47.240;-1.546;2023-02-28T11:06:30;6.03;;;2.30;;
77984;SDS011;67177;47.240;-1.546;2023-02-28T11:08:58;5.75;;;2.40;;
77984;SDS011;67177;47.240;-1.546;2023-02-28T11:11:30;5.95;;;2.60;;
77984;SDS011;67177;47.240;-1.546;2023-02-28T11:14:14;6.27;;;2.60;;
77984;SDS011;67177;47.240;-1.546;2023-02-28T11:16:53;5.30;;;2.17;;
77984;SDS011;67177;47.240;-1.546;2023-02-28T11:19:28;5.32;;;2.60;;
77984;SDS011;67177;47.240;-1.546;2023-02-28T11:22:01;5.53;;;2.28;;
77984;SDS011;67177;47.240;-1.546;2023-02-28T11:24:30;5.63;;;2.50;;
77984;SDS011;67177;47.240;-1.546;2023-02-28T11:27:00;5.53;;;2.40;;
77984;SDS011;67177;47.240;-1.546;2023-02-28T11:34:41;5.40;;;2.47;;
77984;SDS011;67177;47.240;-1.546;2023-02-28T11:37:18;5.63;;;2.40;;
77984;SDS011;67177;47.240;-1.546;2023-02-28T11:39:44;5.80;;;2.70;;
77984;SDS011;67177;47.240;-1.546;2023-02-28T11:45:08;7.35;;;2.90;;
77984;SDS011;67177;47.240;-1.546;2023-02-28T11:50:53;6.43;;;2.60;;
77984;SDS011;67177;47.240;-1.546;2023-02-28T11:53:40;7.00;;;2.60;;
77984;SDS011;67177;47.240;-1.546;2023-02-28T11:56:23;6.68;;;2.45;;
77984;SDS011;67177;47.240;-1.546;2023-02-28T11:59:10;5.68;;;2.65;;
77984;SDS011;67177;47.240;-1.546;2023-02-28T12:02:20;6.22;;;2.60;;
77984;SDS011;67177;47.240;-1.546;2023-02-28T12:10:52;5.75;;;2.38;;
77984;SDS011;67177;47.240;-1.546;2023-02-28T12:26:44;7.95;;;3.10;;
77984;SDS011;67177;47.240;-1.546;2023-02-28T12:34:19;7.10;;;3.10;;
77984;SDS011;67177;47.240;-1.546;2023-02-28T12:36:50;6.70;;;2.72;;
77984;SDS011;67177;47.240;-1.546;2023-02-28T12:39:20;8.40;;;3.28;;
77984;SDS011;67177;47.240;-1.546;2023-02-28T12:41:56;6.90;;;3.30;;
77984;SDS011;67177;47.240;-1.546;2023-02-28T12:44:32;7.70;;;3.50;;
77984;SDS011;67177;47.240;-1.546;2023-02-28T12:47:05;7.73;;;3.40;;
77984;SDS011;67177;47.240;-1.546;2023-02-28T12:49:39;6.15;;;3.30;;
77984;SDS011;67177;47.240;-1.546;2023-02-28T12:52:10;6.63;;;3.30;;
77984;SDS011;67177;47.240;-1.546;2023-02-28T12:54:46;8.05;;;3.30;;
77984;SDS011;67177;47.240;-1.546;2023-02-28T13:00:29;7.33;;;3.50;;
77984;SDS011;67177;47.240;-1.546;2023-02-28T13:11:06;6.95;;;2.72;;
77984;SDS011;67177;47.240;-1.546;2023-02-28T13:13:32;6.17;;;2.63;;
77984;SDS011;67177;47.240;-1.546;2023-02-28T13:18:49;8.70;;;3.58;;
77984;SDS011;67177;47.240;-1.546;2023-02-28T13:21:32;6.80;;;3.28;;
77984;SDS011;67177;47.240;-1.546;2023-02-28T13:24:08;6.53;;;2.80;;
77984;SDS011;67177;47.240;-1.546;2023-02-28T13:34:27;7.60;;;3.00;;
77984;SDS011;67177;47.240;-1.546;2023-02-28T13:37:20;5.85;;;2.88;;
77984;SDS011;67177;47.240;-1.546;2023-02-28T13:47:39;6.60;;;3.20;;
77984;SDS011;67177;47.240;-1.546;2023-02-28T13:50:15;9.93;;;3.43;;
77984;SDS011;67177;47.240;-1.546;2023-02-28T13:53:07;7.53;;;3.17;;
77984;SDS011;67177;47.240;-1.546;2023-02-28T14:06:53;8.98;;;3.08;;
77984;SDS011;67177;47.240;-1.546;2023-02-28T14:09:24;7.45;;;3.80;;
77984;SDS011;67177;47.240;-1.546;2023-02-28T14:11:57;7.72;;;3.53;;
77984;SDS011;67177;47.240;-1.546;2023-02-28T14:17:12;6.33;;;3.37;;
77984;SDS011;67177;47.240;-1.546;2023-02-28T14:19:41;8.00;;;3.30;;
77984;SDS011;67177;47.240;-1.546;2023-02-28T14:27:53;6.47;;;2.83;;
77984;SDS011;67177;47.240;-1.546;2023-02-28T14:38:52;5.70;;;2.70;;
77984;SDS011;67177;47.240;-1.546;2023-02-28T14:41:22;8.82;;;3.67;;
77984;SDS011;67177;47.240;-1.546;2023-02-28T14:43:55;6.47;;;2.88;;
77984;SDS011;67177;47.240;-1.546;2023-02-28T14:46:23;6.75;;;3.25;;
77984;SDS011;67177;47.240;-1.546;2023-02-28T14:48:53;8.27;;;3.70;;
77984;SDS011;67177;47.240;-1.546;2023-02-28T14:51:20;7.10;;;3.40;;
77984;SDS011;67177;47.240;-1.546;2023-02-28T14:53:49;7.32;;;3.80;;
77984;SDS011;67177;47.240;-1.546;2023-02-28T14:56:19;7.65;;;3.60;;
77984;SDS011;67177;47.240;-1.546;2023-02-28T14:59:05;7.03;;;3.72;;
77984;SDS011;67177;47.240;-1.546;2023-02-28T15:01:47;7.60;;;3.37;;
77984;SDS011;67177;47.240;-1.546;2023-02-28T15:04:18;7.13;;;3.42;;
77984;SDS011;67177;47.240;-1.546;2023-02-28T15:07:12;7.28;;;3.15;;
77984;SDS011;67177;47.240;-1.546;2023-02-28T15:09:38;7.50;;;3.50;;
77984;SDS011;67177;47.240;-1.546;2023-02-28T15:12:04;7.78;;;3.50;;
77984;SDS011;67177;47.240;-1.546;2023-02-28T15:14:30;6.32;;;3.17;;
77984;SDS011;67177;47.240;-1.546;2023-02-28T15:17:01;8.07;;;3.40;;
77984;SDS011;67177;47.240;-1.546;2023-02-28T15:19:34;6.45;;;2.85;;
77984;SDS011;67177;47.240;-1.546;2023-02-28T15:22:06;6.65;;;2.72;;
77984;SDS011;67177;47.240;-1.546;2023-02-28T15:24:38;8.40;;;3.38;;
77984;SDS011;67177;47.240;-1.546;2023-02-28T15:27:06;7.15;;;3.60;;
77984;SDS011;67177;47.240;-1.546;2023-02-28T15:29:41;7.57;;;3.30;;
77984;SDS011;67177;47.240;-1.546;2023-02-28T15:34:57;6.53;;;2.97;;
77984;SDS011;67177;47.240;-1.546;2023-02-28T15:37:33;7.22;;;3.17;;
77984;SDS011;67177;47.240;-1.546;2023-02-28T15:40:22;8.35;;;3.67;;
77984;SDS011;67177;47.240;-1.546;2023-02-28T15:43:05;7.97;;;3.73;;
77984;SDS011;67177;47.240;-1.546;2023-02-28T15:45:46;6.45;;;3.38;;
77984;SDS011;67177;47.240;-1.546;2023-02-28T15:48:22;9.10;;;3.30;;
77984;SDS011;67177;47.240;-1.546;2023-02-28T15:50:57;7.50;;;3.10;;
77984;SDS011;67177;47.240;-1.546;2023-02-28T15:53:36;6.63;;;3.08;;
77984;SDS011;67177;47.240;-1.546;2023-02-28T15:58:53;5.63;;;2.55;;
77984;SDS011;67177;47.240;-1.546;2023-02-28T16:01:24;5.00;;;2.20;;
77984;SDS011;67177;47.240;-1.546;2023-02-28T16:03:54;5.50;;;2.25;;
77984;SDS011;67177;47.240;-1.546;2023-02-28T16:06:24;6.50;;;2.47;;
77984;SDS011;67177;47.240;-1.546;2023-02-28T16:08:58;5.37;;;2.10;;
77984;SDS011;67177;47.240;-1.546;2023-02-28T16:11:24;5.75;;;2.30;;
77984;SDS011;67177;47.240;-1.546;2023-02-28T16:13:50;5.18;;;2.17;;
77984;SDS011;67177;47.240;-1.546;2023-02-28T16:16:17;5.65;;;2.00;;
77984;SDS011;67177;47.240;-1.546;2023-02-28T16:18:44;4.60;;;1.70;;
77984;SDS011;67177;47.240;-1.546;2023-02-28T16:21:11;3.88;;;1.40;;
77984;SDS011;67177;47.240;-1.546;2023-02-28T16:23:36;4.70;;;1.38;;
77984;SDS011;67177;47.240;-1.546;2023-02-28T16:26:02;4.20;;;1.40;;
77984;SDS011;67177;47.240;-1.546;2023-02-28T16:28:33;5.00;;;1.63;;
77984;SDS011;67177;47.240;-1.546;2023-02-28T16:31:01;5.63;;;1.73;;
77984;SDS011;67177;47.240;-1.546;2023-02-28T16:33:29;5.88;;;2.00;;
77984;SDS011;67177;47.240;-1.546;2023-02-28T16:35:55;5.83;;;1.80;;
77984;SDS011;67177;47.240;-1.546;2023-02-28T16:38:21;5.60;;;1.98;;
77984;SDS011;67177;47.240;-1.546;2023-02-28T16:40:49;5.88;;;2.28;;
77984;SDS011;67177;47.240;-1.546;2023-02-28T16:43:17;6.07;;;2.40;;
77984;SDS011;67177;47.240;-1.546;2023-02-28T16:45:46;5.67;;;2.30;;
77984;SDS011;67177;47.240;-1.546;2023-02-28T16:48:12;5.63;;;2.20;;
77984;SDS011;67177;47.240;-1.546;2023-02-28T16:50:40;6.30;;;2.60;;
77984;SDS011;67177;47.240;-1.546;2023-02-28T16:53:06;7.18;;;2.50;;
77984;SDS011;67177;47.240;-1.546;2023-02-28T16:55:32;5.80;;;2.40;;
77984;SDS011;67177;47.240;-1.546;2023-02-28T16:57:59;6.70;;;2.72;;
77984;SDS011;67177;47.240;-1.546;2023-02-28T17:00:26;5.95;;;2.40;;
77984;SDS011;67177;47.240;-1.546;2023-02-28T17:02:54;7.47;;;2.65;;
77984;SDS011;67177;47.240;-1.546;2023-02-28T17:05:20;6.67;;;3.33;;
77984;SDS011;67177;47.240;-1.546;2023-02-28T17:07:46;7.88;;;3.10;;
77984;SDS011;67177;47.240;-1.546;2023-02-28T17:10:17;7.05;;;3.40;;
77984;SDS011;67177;47.240;-1.546;2023-02-28T17:12:47;7.57;;;3.35;;
77984;SDS011;67177;47.240;-1.546;2023-02-28T17:15:14;8.75;;;3.33;;
77984;SDS011;67177;47.240;-1.546;2023-02-28T17:17:42;6.37;;;2.90;;
77984;SDS011;67177;47.240;-1.546;2023-02-28T17:20:15;8.30;;;3.63;;
77984;SDS011;67177;47.240;-1.546;2023-02-28T17:22:43;7.63;;;3.13;;
77984;SDS011;67177;47.240;-1.546;2023-02-28T17:25:09;7.07;;;3.15;;
77984;SDS011;67177;47.240;-1.546;2023-02-28T17:27:36;5.97;;;2.70;;
77984;SDS011;67177;47.240;-1.546;2023-02-28T17:30:03;5.32;;;2.20;;